createdAt,value
2023-05-23T00:02:47.775Z,100039.55
2023-05-23T00:05:59.121Z,100040.73
2023-05-23T00:08:45.374Z,100043.36
2023-05-23T00:11:47.577Z,100041.08
2023-05-23T00:14:45.677Z,100040.22
2023-05-23T00:17:25.632Z,100032.61
2023-05-23T00:20:00.307Z,100034.34
2023-05-23T00:22:43.337Z,100031.27
2023-05-23T00:26:11.850Z,100033.86
2023-05-23T00:29:01.701Z,100021.30
2023-05-23T00:31:32.200Z,100032.61
2023-05-23T00:34:35.023Z,100036.13
2023-05-23T00:41:50.579Z,100032.46
2023-05-23T00:50:10.544Z,100025.59
2023-05-23T00:52:45.403Z,100029.64
2023-05-23T00:56:18.169Z,100027.27
2023-05-23T00:58:58.561Z,100025.89
2023-05-23T01:01:58.041Z,100024.88
2023-05-23T01:04:39.200Z,100023.77
2023-05-23T01:07:40.188Z,100022.07
2023-05-23T01:10:50.562Z,100024.55
2023-05-23T01:14:06.789Z,100025.62
2023-05-23T01:17:31.575Z,100024.80
2023-05-23T01:21:07.783Z,100020.83
2023-05-23T01:24:49.766Z,100021.48
2023-05-23T01:28:14.355Z,100026.31
2023-05-23T01:31:41.359Z,100022.80
2023-05-23T01:34:12.896Z,100021.75
2023-05-23T01:36:52.722Z,100020.64
2023-05-23T01:39:34.725Z,100023.79
2023-05-23T01:42:14.059Z,100020.15
2023-05-23T01:45:03.546Z,100022.24
2023-05-23T01:49:58.610Z,100021.36
2023-05-23T01:53:18.756Z,100022.44
2023-05-23T01:55:57.734Z,100023.08
2023-05-23T01:58:32.769Z,100022.77
2023-05-23T02:01:38.755Z,100025.88
2023-05-23T02:04:29.677Z,100025.02
2023-05-23T02:07:26.018Z,100019.86
2023-05-23T02:10:18.094Z,100019.69
2023-05-23T02:13:30.380Z,100023.34
2023-05-23T02:16:25.377Z,100015.15
2023-05-23T02:24:33.458Z,100012.66
2023-05-23T02:28:02.548Z,100016.73
2023-05-23T02:30:37.288Z,100012.50
2023-05-23T02:33:50.298Z,100001.91
2023-05-23T02:37:05.758Z,100016.98
2023-05-23T02:48:40.999Z,100030.04
2023-05-23T02:51:34.823Z,100027.12
2023-05-23T02:54:14.303Z,100023.80
2023-05-23T02:57:14.637Z,100018.10
2023-05-23T03:03:07.086Z,100021.40
2023-05-23T03:05:53.414Z,100020.92
2023-05-23T03:08:50.239Z,100023.66
2023-05-23T03:12:53.943Z,100027.02
2023-05-23T03:15:47.737Z,100019.95
2023-05-23T03:18:29.648Z,100035.45
2023-05-23T03:21:45.434Z,100033.57
2023-05-23T03:25:23.877Z,100032.53
2023-05-23T03:28:03.578Z,100033.94
2023-05-23T03:30:42.222Z,100038.11
2023-05-23T03:33:43.944Z,100040.23
2023-05-23T03:36:35.253Z,100038.02
2023-05-23T03:44:24.818Z,100038.90
2023-05-23T03:47:03.729Z,100032.90
2023-05-23T03:50:17.759Z,100033.91
2023-05-23T03:53:46.337Z,100032.45
2023-05-23T04:01:31.139Z,100029.72
2023-05-23T04:05:17.444Z,100037.92
2023-05-23T04:13:44.535Z,100039.17
2023-05-23T04:16:54.381Z,100042.21
2023-05-23T04:20:04.579Z,100043.98
2023-05-23T04:40:00.624Z,100038.80
2023-05-23T05:18:42.612Z,100025.55
2023-05-23T05:22:04.372Z,100029.59
2023-05-23T05:28:33.369Z,100028.85
2023-05-23T05:31:15.598Z,100030.98
2023-05-23T05:38:51.160Z,100022.14
2023-05-23T05:42:07.165Z,100021.16
2023-05-23T05:44:44.870Z,100020.27
2023-05-23T05:47:36.112Z,100017.45
2023-05-23T05:51:02.653Z,100017.41
2023-05-23T05:54:12.726Z,100019.42
2023-05-23T06:01:30.155Z,100019.90
2023-05-23T06:04:49.907Z,100016.90
2023-05-23T06:07:47.114Z,100020.77
2023-05-23T06:15:29.170Z,100017.67
2023-05-23T06:18:59.796Z,100013.95
2023-05-23T06:21:47.809Z,100012.39
2023-05-23T06:27:19.596Z,100010.24
2023-05-23T06:30:18.742Z,100007.76
2023-05-23T06:33:36.767Z,100003.73
2023-05-23T06:36:35.340Z,99998.95
2023-05-23T06:39:24.874Z,99996.80
2023-05-23T06:42:01.240Z,99980.41
2023-05-23T06:45:56.065Z,100004.10
2023-05-23T06:56:56.754Z,99988.56
2023-05-23T07:03:31.346Z,99979.40
2023-05-23T07:07:30.098Z,99981.35
2023-05-23T07:11:01.182Z,99980.77
2023-05-23T07:13:56.399Z,99979.15
2023-05-23T07:17:37.000Z,99973.50
2023-05-23T07:21:37.984Z,99977.99
2023-05-23T07:24:26.355Z,99976.13
2023-05-23T07:27:32.198Z,99970.82
2023-05-23T07:30:38.364Z,99968.61
2023-05-23T07:34:13.225Z,99968.11
2023-05-23T07:37:37.006Z,99961.38
2023-05-23T07:41:12.726Z,99969.88
2023-05-23T07:44:39.703Z,99968.08
2023-05-23T07:47:49.616Z,99965.96
2023-05-23T07:55:42.398Z,99962.80
2023-05-23T08:03:29.049Z,99953.67
2023-05-23T08:06:21.079Z,99938.77
2023-05-23T08:10:05.904Z,99938.20
2023-05-23T08:13:12.484Z,99937.86
2023-05-23T08:17:06.556Z,99937.42
2023-05-23T08:20:14.339Z,99931.23
2023-05-23T08:23:18.334Z,99924.63
2023-05-23T08:26:20.763Z,99927.21
2023-05-23T08:29:51.638Z,99927.61
2023-05-23T08:33:11.370Z,99922.46
2023-05-23T08:36:49.855Z,99923.90
2023-05-23T08:39:40.155Z,99918.71
2023-05-23T08:44:43.451Z,99916.67
2023-05-23T08:47:53.974Z,99914.57
2023-05-23T08:51:52.341Z,99910.45
2023-05-23T08:54:57.037Z,99903.98
2023-05-23T09:12:48.647Z,99894.67
2023-05-23T09:16:01.862Z,99893.42
2023-05-23T09:19:27.305Z,99893.08
2023-05-23T09:22:39.896Z,99888.05
2023-05-23T09:25:50.376Z,99886.33
2023-05-23T09:28:40.453Z,99880.89
2023-05-23T09:31:34.434Z,99880.54
2023-05-23T09:39:32.619Z,99891.16
2023-05-23T09:42:55.463Z,99891.95
2023-05-23T09:51:13.273Z,99885.53
2023-05-23T09:54:35.053Z,99877.54
2023-05-23T09:57:37.916Z,99885.63
2023-05-23T10:09:56.904Z,99895.46
2023-05-23T10:49:57.526Z,99859.77
2023-05-23T10:53:01.155Z,99859.17
2023-05-23T11:04:50.338Z,99849.30
2023-05-23T11:08:47.056Z,99845.23
2023-05-23T11:12:43.593Z,99841.85
2023-05-23T11:20:28.488Z,99834.32
2023-05-23T11:23:14.920Z,99827.65
2023-05-23T11:26:55.703Z,99825.35
2023-05-23T11:38:45.769Z,99804.11
2023-05-23T11:41:53.039Z,99806.30
2023-05-23T11:48:35.928Z,99808.24
2023-05-23T11:52:24.432Z,99809.80
2023-05-23T11:55:16.403Z,99807.61
2023-05-23T11:58:07.168Z,99805.45
2023-05-23T12:02:11.572Z,99808.30
2023-05-23T12:06:14.228Z,99798.48
2023-05-23T12:13:55.641Z,99798.33
2023-05-23T12:21:17.135Z,99805.73
2023-05-23T12:24:05.034Z,99802.92
2023-05-23T12:27:26.483Z,99806.07
2023-05-23T12:30:25.186Z,99802.09
2023-05-23T12:33:53.649Z,99797.59
2023-05-23T12:41:16.623Z,99795.36
2023-05-23T12:44:17.470Z,99787.85
2023-05-23T12:47:15.170Z,99785.67
2023-05-23T12:50:40.404Z,99777.42
2023-05-23T13:02:46.887Z,99782.96
2023-05-23T13:09:46.420Z,99785.23
2023-05-23T14:07:26.843Z,99777.76
2023-05-23T14:10:51.645Z,99776.49
2023-05-23T14:14:12.045Z,99770.27
2023-05-23T14:17:29.750Z,99773.33
2023-05-23T14:20:37.055Z,99771.69
2023-05-23T14:24:12.064Z,99776.70
2023-05-23T14:32:35.447Z,99763.61
2023-05-23T14:35:25.304Z,99758.13
2023-05-23T14:38:25.604Z,99773.06
2023-05-23T14:46:58.691Z,99782.10
2023-05-23T14:50:21.265Z,99773.36
2023-05-23T14:54:04.172Z,99777.79
2023-05-23T14:57:15.184Z,99776.15
2023-05-23T15:00:08.846Z,99770.70
2023-05-23T15:04:10.639Z,99772.34
2023-05-23T15:16:38.419Z,99769.73
2023-05-23T15:24:56.654Z,99772.19
2023-05-23T15:28:30.625Z,99764.02
2023-05-23T15:35:48.709Z,99767.53
2023-05-23T15:43:04.926Z,99757.54
2023-05-23T15:45:40.196Z,99756.59
2023-05-23T15:48:38.479Z,99757.80
2023-05-23T15:52:18.773Z,99757.17
2023-05-23T15:59:25.060Z,99758.83
2023-05-23T16:02:43.638Z,99757.73
2023-05-23T16:05:19.995Z,99761.48
2023-05-23T16:11:57.359Z,99763.51
2023-05-23T16:14:26.614Z,99766.06
2023-05-23T16:16:56.634Z,99767.81
2023-05-23T16:19:42.455Z,99766.48
2023-05-23T16:26:57.075Z,99766.17
2023-05-23T16:34:08.195Z,99769.14
2023-05-23T16:36:37.097Z,99770.84
2023-05-23T16:39:04.522Z,99770.98
2023-05-23T16:41:34.111Z,99772.92
2023-05-23T16:44:01.332Z,99770.51
2023-05-23T16:46:30.166Z,99766.09
2023-05-23T16:48:59.207Z,99769.23
2023-05-23T16:51:32.956Z,99766.72
2023-05-23T16:54:01.640Z,99764.59
2023-05-23T16:56:30.798Z,99770.19
2023-05-23T16:58:58.204Z,99769.95
2023-05-23T17:01:29.366Z,99778.04
2023-05-23T17:03:58.444Z,99781.35
2023-05-23T17:06:31.254Z,99780.23
2023-05-23T17:08:59.062Z,99786.23
2023-05-23T17:11:27.185Z,99780.29
2023-05-23T17:18:09.332Z,99788.80
2023-05-23T17:21:36.529Z,99784.94
2023-05-23T17:24:19.357Z,99784.48
2023-05-23T17:27:12.115Z,99783.76
2023-05-23T17:34:17.574Z,99784.41
2023-05-23T17:45:43.379Z,99791.48
2023-05-23T17:48:48.031Z,99797.23
2023-05-23T18:00:35.844Z,99816.60
2023-05-23T18:04:41.992Z,99826.20
2023-05-23T18:19:04.973Z,99830.47
2023-05-23T18:31:18.020Z,99835.77
2023-05-23T18:34:43.740Z,99839.39
2023-05-23T18:57:37.086Z,99854.48
2023-05-23T19:24:26.944Z,99869.77
2023-05-23T19:48:42.066Z,99878.92
2023-05-23T20:01:31.037Z,99862.95
2023-05-23T20:28:52.680Z,99881.35
2023-05-23T20:36:35.251Z,99889.24
2023-05-23T20:40:00.566Z,99895.55
2023-05-23T20:48:01.597Z,99906.77
2023-05-23T20:51:33.811Z,99906.64
2023-05-23T20:55:23.494Z,99903.43
2023-05-23T21:04:21.075Z,99902.98
2023-05-23T21:22:44.279Z,99900.51
2023-05-23T21:40:31.878Z,99901.76
2023-05-23T21:44:48.349Z,99901.91
2023-05-23T21:47:46.307Z,99884.42
2023-05-23T21:51:17.451Z,99900.87
2023-05-23T21:53:59.785Z,99903.20
2023-05-23T21:56:52.614Z,99902.27
2023-05-23T22:00:15.067Z,99901.16
2023-05-23T22:03:19.735Z,99895.56
2023-05-23T22:06:44.371Z,99896.80
2023-05-23T22:19:10.006Z,99896.57
2023-05-23T22:21:39.190Z,99889.88
2023-05-23T22:24:07.577Z,99899.59
2023-05-23T22:26:39.555Z,99897.57
2023-05-23T22:29:11.600Z,99887.95
2023-05-23T22:31:44.273Z,99896.44
2023-05-23T22:34:52.016Z,99894.27
2023-05-23T22:37:43.234Z,99900.92
2023-05-23T22:41:14.012Z,99899.80
2023-05-23T22:43:58.003Z,99900.36
2023-05-23T22:47:09.181Z,99897.71
2023-05-23T22:49:45.318Z,99901.81
2023-05-23T22:52:21.296Z,99896.58
2023-05-23T23:01:00.202Z,99896.35
2023-05-23T23:03:46.500Z,99897.99
2023-05-23T23:07:24.744Z,99900.98
2023-05-23T23:14:35.526Z,99894.68
2023-05-23T23:17:53.500Z,99886.78
2023-05-23T23:21:24.700Z,99894.62
2023-05-23T23:24:15.320Z,99895.02
2023-05-23T23:31:41.148Z,99893.14
2023-05-23T23:34:35.393Z,99889.90
2023-05-23T23:37:35.709Z,99889.74
2023-05-23T23:41:15.403Z,99887.53
2023-05-23T23:43:59.667Z,99885.41
2023-05-23T23:46:54.623Z,99883.73
2023-05-23T23:58:49.522Z,99874.95
